createdAt,value
2022-11-17T00:02:00.854Z,-1.40
2022-11-17T00:04:30.819Z,-1.40
2022-11-17T00:06:58.676Z,-1.45
2022-11-17T00:09:26.187Z,-1.41
2022-11-17T00:12:12.074Z,-1.47
2022-11-17T00:14:41.445Z,-1.46
2022-11-17T00:17:11.557Z,-1.56
2022-11-17T00:19:57.685Z,-1.54
2022-11-17T00:22:25.464Z,-1.51
2022-11-17T00:24:52.462Z,-1.48
2022-11-17T00:27:19.526Z,-1.55
2022-11-17T00:29:46.470Z,-1.50
2022-11-17T00:32:33.347Z,-1.60
2022-11-17T00:35:00.536Z,-1.53
2022-11-17T00:37:30.142Z,-1.65
2022-11-17T00:40:00.696Z,-1.57
2022-11-17T00:42:27.993Z,-1.61
2022-11-17T00:44:54.902Z,-1.81
2022-11-17T00:47:21.853Z,-1.66
2022-11-17T00:49:48.832Z,-1.61
2022-11-17T00:52:15.931Z,-1.71
2022-11-17T00:54:42.917Z,-1.59
2022-11-17T00:57:09.950Z,-1.70
2022-11-17T00:59:36.885Z,-1.55
2022-11-17T01:02:03.864Z,-1.60
2022-11-17T01:04:30.866Z,-1.63
2022-11-17T01:06:57.887Z,-1.55
2022-11-17T01:09:25.056Z,-1.53
2022-11-17T01:11:53.519Z,-1.59
2022-11-17T01:14:29.512Z,-1.56
2022-11-17T01:16:56.806Z,-1.51
2022-11-17T01:19:24.530Z,-1.43
2022-11-17T01:21:51.529Z,-1.40
2022-11-17T01:24:18.845Z,-1.44
2022-11-17T01:26:46.404Z,-1.36
2022-11-17T01:29:15.034Z,-1.36
2022-11-17T01:31:45.773Z,-1.38
2022-11-17T01:34:13.443Z,-1.45
2022-11-17T01:37:01.322Z,-1.49
2022-11-17T01:39:29.998Z,-1.56
2022-11-17T01:41:57.555Z,-1.46
2022-11-17T01:44:36.738Z,-1.53
2022-11-17T01:47:16.984Z,-1.48
2022-11-17T01:49:45.366Z,-1.42
2022-11-17T01:52:13.903Z,-1.50
2022-11-17T01:54:43.913Z,-1.47
2022-11-17T01:57:15.044Z,-1.36
2022-11-17T02:00:05.094Z,-1.29
2022-11-17T02:02:34.071Z,-1.34
2022-11-17T02:05:43.566Z,-1.29
2022-11-17T02:08:12.267Z,-1.38
2022-11-17T02:10:39.816Z,-1.41
2022-11-17T02:13:08.438Z,-1.34
2022-11-17T02:15:36.075Z,-1.31
2022-11-17T02:18:03.310Z,-1.25
2022-11-17T02:20:43.308Z,-1.25
2022-11-17T02:24:05.915Z,-1.26
2022-11-17T02:27:10.271Z,-1.26
2022-11-17T02:29:46.326Z,-1.28
2022-11-17T02:32:24.836Z,-1.29
2022-11-17T02:34:59.527Z,-1.27
2022-11-17T02:37:43.893Z,-1.38
2022-11-17T02:40:29.610Z,-1.36
2022-11-17T02:43:21.694Z,-1.42
2022-11-17T02:45:58.944Z,-1.34
2022-11-17T02:48:32.813Z,-1.35
2022-11-17T02:51:01.486Z,-1.41
2022-11-17T02:53:30.479Z,-1.46
2022-11-17T02:56:00.653Z,-1.37
2022-11-17T02:58:27.993Z,-1.38
2022-11-17T03:01:23.482Z,-1.37
2022-11-17T03:03:59.432Z,-1.38
2022-11-17T03:06:51.901Z,-1.39
2022-11-17T03:09:43.801Z,-1.39
2022-11-17T03:12:50.704Z,-1.40
2022-11-17T03:15:24.264Z,-1.38
2022-11-17T03:18:03.934Z,-1.36
2022-11-17T03:20:44.439Z,-1.46
2022-11-17T03:23:19.589Z,-1.44
2022-11-17T03:25:54.975Z,-1.33
2022-11-17T03:28:28.624Z,-1.29
2022-11-17T03:30:57.113Z,-1.22
2022-11-17T03:33:25.889Z,-1.30
2022-11-17T03:36:01.959Z,-1.26
2022-11-17T03:38:34.991Z,-1.21
2022-11-17T03:41:05.304Z,-1.21
2022-11-17T03:43:32.831Z,-1.25
2022-11-17T03:46:07.674Z,-1.25
2022-11-17T03:48:51.446Z,-1.30
2022-11-17T03:51:25.435Z,-1.35
2022-11-17T03:53:54.818Z,-1.30
2022-11-17T03:56:42.330Z,-1.29
2022-11-17T03:59:46.980Z,-1.48
2022-11-17T04:02:17.703Z,-1.37
2022-11-17T04:05:03.561Z,-1.52
2022-11-17T04:07:30.488Z,-1.40
2022-11-17T04:09:57.472Z,-1.52
2022-11-17T04:12:42.786Z,-1.45
2022-11-17T04:15:32.152Z,-1.44
2022-11-17T04:17:59.971Z,-1.40
2022-11-17T04:20:28.110Z,-1.41
2022-11-17T04:23:11.535Z,-1.48
2022-11-17T04:25:58.524Z,-1.34
2022-11-17T04:28:38.958Z,-1.37
2022-11-17T04:31:17.846Z,-1.32
2022-11-17T04:33:50.011Z,-1.58
2022-11-17T04:36:19.853Z,-1.45
2022-11-17T04:38:52.749Z,-1.40
2022-11-17T04:41:46.774Z,-1.43
2022-11-17T04:44:16.134Z,-1.48
2022-11-17T04:46:47.297Z,-1.42
2022-11-17T04:49:15.608Z,-1.35
2022-11-17T04:51:42.631Z,-1.44
2022-11-17T04:54:13.087Z,-1.34
2022-11-17T04:56:40.403Z,-1.39
2022-11-17T04:59:07.862Z,-1.31
2022-11-17T05:01:35.994Z,-1.30
2022-11-17T05:04:08.996Z,-1.53
2022-11-17T05:06:39.931Z,-1.34
2022-11-17T05:09:14.329Z,-1.28
2022-11-17T05:12:00.237Z,-1.28
2022-11-17T05:14:28.610Z,-1.29
2022-11-17T05:17:11.314Z,-1.35
2022-11-17T05:19:44.545Z,-1.26
2022-11-17T05:22:32.854Z,-1.29
2022-11-17T05:25:00.254Z,-1.30
2022-11-17T05:27:27.495Z,-1.35
2022-11-17T05:29:54.567Z,-1.39
2022-11-17T05:32:22.174Z,-1.35
2022-11-17T05:34:49.144Z,-1.27
2022-11-17T05:37:16.215Z,-1.27
2022-11-17T05:39:43.308Z,-1.30
2022-11-17T05:42:10.308Z,-1.28
2022-11-17T05:44:37.489Z,-1.21
2022-11-17T05:47:04.602Z,-1.22
2022-11-17T05:49:31.689Z,-1.17
2022-11-17T05:51:58.690Z,-1.18
2022-11-17T05:54:27.060Z,-1.18
2022-11-17T05:57:02.232Z,-1.12
2022-11-17T05:59:36.867Z,-1.21
2022-11-17T06:02:06.500Z,-1.07
2022-11-17T06:04:36.064Z,-1.16
2022-11-17T06:07:03.148Z,-1.07
2022-11-17T06:09:36.844Z,-1.16
2022-11-17T06:12:06.190Z,-1.15
2022-11-17T06:14:38.320Z,-1.04
2022-11-17T06:17:28.972Z,-1.08
2022-11-17T06:20:06.344Z,-0.99
2022-11-17T06:22:33.894Z,-1.11
2022-11-17T06:25:03.515Z,-0.94
2022-11-17T06:27:34.222Z,-0.91
2022-11-17T06:30:03.787Z,-0.91
2022-11-17T06:32:35.134Z,-1.01
2022-11-17T06:35:06.562Z,-0.89
2022-11-17T06:37:33.568Z,-0.87
2022-11-17T06:40:00.873Z,-0.90
2022-11-17T06:42:48.004Z,-0.82
2022-11-17T06:45:15.103Z,-0.82
2022-11-17T06:47:42.069Z,-0.72
2022-11-17T06:50:10.488Z,-0.67
2022-11-17T06:52:42.715Z,-0.66
2022-11-17T06:55:10.058Z,-0.72
2022-11-17T06:57:37.038Z,-0.63
2022-11-17T07:00:06.449Z,-0.50
2022-11-17T07:02:33.481Z,-0.62
2022-11-17T07:05:00.908Z,-0.51
2022-11-17T07:07:30.304Z,-0.36
2022-11-17T07:09:57.349Z,-0.36
2022-11-17T07:12:24.277Z,-0.34
2022-11-17T07:14:51.290Z,-0.29
2022-11-17T07:17:18.288Z,-0.28
2022-11-17T07:19:45.519Z,-0.22
2022-11-17T07:22:12.734Z,-0.23
2022-11-17T07:24:39.744Z,-0.31
2022-11-17T07:27:07.015Z,-0.22
2022-11-17T07:29:34.029Z,-0.23
2022-11-17T07:32:01.013Z,-0.20
2022-11-17T07:34:28.015Z,-0.11
2022-11-17T07:36:54.968Z,-0.11
2022-11-17T07:39:22.147Z,0.05
2022-11-17T07:41:49.125Z,0.06
2022-11-17T07:44:19.221Z,0.05
2022-11-17T07:46:46.919Z,0.14
2022-11-17T07:49:13.833Z,0.15
2022-11-17T07:51:40.750Z,0.10
2022-11-17T07:54:07.698Z,0.19
2022-11-17T07:56:34.919Z,0.27
2022-11-17T07:59:02.006Z,0.40
2022-11-17T08:01:29.804Z,0.31
2022-11-17T08:03:57.976Z,0.31
2022-11-17T08:06:25.296Z,0.23
2022-11-17T08:08:59.174Z,0.20
2022-11-17T08:11:26.282Z,0.27
2022-11-17T08:13:53.255Z,0.24
2022-11-17T08:16:20.836Z,0.26
2022-11-17T08:18:51.996Z,0.37
2022-11-17T08:21:19.821Z,0.29
2022-11-17T08:23:55.396Z,0.40
2022-11-17T08:26:25.179Z,0.39
2022-11-17T08:28:56.913Z,0.29
2022-11-17T08:31:25.463Z,0.37
2022-11-17T08:33:52.457Z,0.37
2022-11-17T08:36:19.663Z,0.39
2022-11-17T08:38:46.705Z,0.42
2022-11-17T08:41:13.737Z,0.42
2022-11-17T08:43:40.764Z,0.26
2022-11-17T08:46:11.875Z,0.25
2022-11-17T08:48:39.268Z,0.11
2022-11-17T08:51:08.457Z,0.25
2022-11-17T08:53:35.749Z,0.31
2022-11-17T08:56:07.415Z,0.29
2022-11-17T08:58:45.194Z,0.43
2022-11-17T09:01:17.314Z,0.54
2022-11-17T09:03:47.437Z,0.59
2022-11-17T09:06:16.113Z,0.59
2022-11-17T09:08:46.227Z,0.47
2022-11-17T09:11:25.323Z,0.46
2022-11-17T09:13:52.548Z,0.54
2022-11-17T09:16:19.746Z,0.48
2022-11-17T09:18:46.833Z,0.42
2022-11-17T09:21:15.787Z,0.40
2022-11-17T09:23:43.094Z,0.51
2022-11-17T09:26:13.376Z,0.64
2022-11-17T09:28:41.199Z,0.83
2022-11-17T09:31:09.652Z,0.96
2022-11-17T09:33:37.472Z,1.07
2022-11-17T09:36:05.218Z,1.19
2022-11-17T09:38:32.522Z,1.26
2022-11-17T09:41:01.132Z,1.38
2022-11-17T09:43:30.952Z,1.57
2022-11-17T09:46:07.542Z,1.42
2022-11-17T09:49:13.712Z,1.66
2022-11-17T09:51:46.572Z,1.50
2022-11-17T09:54:43.581Z,1.46
2022-11-17T09:57:48.793Z,1.25
2022-11-17T10:00:19.528Z,1.08
2022-11-17T10:02:47.823Z,0.92
2022-11-17T10:05:33.295Z,0.87
2022-11-17T10:08:08.569Z,0.76
2022-11-17T10:10:39.492Z,0.80
2022-11-17T10:13:33.282Z,0.83
2022-11-17T10:16:13.534Z,0.82
2022-11-17T10:18:40.507Z,0.72
2022-11-17T10:21:09.430Z,0.71
2022-11-17T10:23:45.893Z,0.68
2022-11-17T10:26:16.043Z,0.60
2022-11-17T10:28:44.779Z,0.59
2022-11-17T10:31:19.873Z,0.40
2022-11-17T10:33:49.042Z,0.29
2022-11-17T10:36:15.967Z,0.30
2022-11-17T10:38:48.691Z,0.21
2022-11-17T10:41:19.681Z,0.05
2022-11-17T10:44:15.997Z,0.06
2022-11-17T10:47:25.485Z,-0.05
2022-11-17T10:50:05.914Z,-0.17
2022-11-17T10:52:33.271Z,-0.34
2022-11-17T10:55:19.863Z,-0.27
2022-11-17T10:57:52.077Z,-0.33
2022-11-17T11:00:23.845Z,-0.21
2022-11-17T11:03:05.636Z,-0.25
2022-11-17T11:05:32.895Z,-0.23
2022-11-17T11:08:20.040Z,-0.29
2022-11-17T11:10:52.578Z,-0.38
2022-11-17T11:13:36.132Z,-0.39
2022-11-17T11:16:03.855Z,-0.34
2022-11-17T11:18:32.133Z,-0.32
2022-11-17T11:21:24.466Z,-0.32
2022-11-17T11:23:56.564Z,-0.48
2022-11-17T11:26:33.319Z,-0.37
2022-11-17T11:29:03.394Z,-0.39
2022-11-17T11:31:43.847Z,-0.44
2022-11-17T11:34:11.527Z,-0.43
2022-11-17T11:37:06.668Z,-0.43
2022-11-17T11:40:01.343Z,-0.53
2022-11-17T11:42:43.000Z,-0.55
2022-11-17T11:45:16.166Z,-0.52
2022-11-17T11:47:49.526Z,-0.52
2022-11-17T11:50:22.100Z,-0.77
2022-11-17T11:52:55.529Z,-0.67
2022-11-17T11:55:28.018Z,-0.58
2022-11-17T11:58:19.440Z,-0.70
2022-11-17T12:00:49.577Z,-0.67
2022-11-17T12:03:35.233Z,-0.65
2022-11-17T12:06:39.179Z,-0.70
2022-11-17T12:09:31.247Z,-0.71
2022-11-17T12:12:02.557Z,-0.80
2022-11-17T12:14:35.720Z,-0.76
2022-11-17T12:17:23.639Z,-0.79
2022-11-17T12:19:55.333Z,-0.83
2022-11-17T12:22:34.408Z,-0.80
2022-11-17T12:25:15.284Z,-0.95
2022-11-17T12:27:52.624Z,-0.85
2022-11-17T12:30:34.932Z,-0.82
2022-11-17T12:33:06.673Z,-0.89
2022-11-17T12:35:36.006Z,-0.84
2022-11-17T12:38:17.946Z,-0.92
2022-11-17T12:40:54.990Z,-0.90
2022-11-17T12:43:24.570Z,-0.92
2022-11-17T12:46:12.730Z,-0.90
2022-11-17T12:48:48.662Z,-1.05
2022-11-17T12:51:27.377Z,-0.99
2022-11-17T12:54:07.239Z,-1.07
2022-11-17T12:56:46.263Z,-1.16
2022-11-17T12:59:29.303Z,-1.30
2022-11-17T13:02:15.608Z,-1.35
2022-11-17T13:04:51.876Z,-1.39
2022-11-17T13:07:21.571Z,-1.47
2022-11-17T13:09:59.177Z,-1.51
2022-11-17T13:12:31.111Z,-1.59
2022-11-17T13:15:00.124Z,-1.73
2022-11-17T13:17:30.536Z,-1.84
2022-11-17T13:20:00.000Z,-1.97
2022-11-17T13:22:27.211Z,-2.06
2022-11-17T13:24:54.683Z,-2.19
2022-11-17T13:27:30.497Z,-2.32
2022-11-17T13:30:22.634Z,-2.21
2022-11-17T13:32:50.385Z,-2.29
2022-11-17T13:35:26.383Z,-2.28
2022-11-17T13:38:18.319Z,-2.38
2022-11-17T13:40:46.358Z,-2.36
2022-11-17T13:43:18.544Z,-2.33
2022-11-17T13:45:47.399Z,-2.44
2022-11-17T13:48:34.571Z,-2.35
2022-11-17T13:51:20.415Z,-2.36
2022-11-17T13:54:06.035Z,-2.40
2022-11-17T13:56:40.855Z,-2.37
2022-11-17T13:59:33.967Z,-2.36
2022-11-17T14:02:16.229Z,-2.39
2022-11-17T14:05:14.398Z,-2.48
2022-11-17T14:07:43.088Z,-2.54
2022-11-17T14:10:22.570Z,-2.60
2022-11-17T14:12:51.680Z,-2.68
2022-11-17T14:15:21.650Z,-2.67
2022-11-17T14:17:55.186Z,-2.76
2022-11-17T14:20:25.610Z,-2.83
2022-11-17T14:23:15.787Z,-2.90
2022-11-17T14:25:45.130Z,-2.96
2022-11-17T14:28:20.629Z,-3.04
2022-11-17T14:30:51.976Z,-3.08
2022-11-17T14:33:19.433Z,-3.19
2022-11-17T14:35:53.181Z,-3.21
2022-11-17T14:38:20.885Z,-3.18
2022-11-17T14:40:53.249Z,-3.31
2022-11-17T14:43:22.921Z,-3.36
2022-11-17T14:45:50.897Z,-3.49
2022-11-17T14:48:19.618Z,-3.41
2022-11-17T14:50:48.009Z,-3.49
2022-11-17T14:53:46.753Z,-3.51
2022-11-17T14:56:22.332Z,-3.63
2022-11-17T14:58:57.485Z,-3.67
2022-11-17T15:01:32.486Z,-3.67
2022-11-17T15:07:29.419Z,-3.82
2022-11-17T15:10:09.700Z,-3.85
2022-11-17T15:12:58.406Z,-3.96
2022-11-17T15:15:25.763Z,-4.02
2022-11-17T15:17:53.823Z,-4.04
2022-11-17T15:20:20.836Z,-3.99
2022-11-17T15:22:50.129Z,-4.00
2022-11-17T15:25:17.302Z,-4.13
2022-11-17T15:27:45.004Z,-4.10
2022-11-17T15:30:15.027Z,-4.20
2022-11-17T15:33:05.538Z,-4.22
2022-11-17T15:35:34.900Z,-4.34
2022-11-17T15:38:02.614Z,-4.37
2022-11-17T15:40:29.895Z,-4.41
2022-11-17T15:42:57.718Z,-4.41
2022-11-17T15:45:24.906Z,-4.58
2022-11-17T15:47:52.193Z,-4.48
2022-11-17T15:50:19.878Z,-4.41
2022-11-17T15:53:03.478Z,-4.42
2022-11-17T15:55:35.412Z,-4.41
2022-11-17T15:58:02.666Z,-4.36
2022-11-17T16:00:34.202Z,-4.20
2022-11-17T16:03:02.108Z,-4.26
2022-11-17T16:05:29.255Z,-4.17
2022-11-17T16:07:56.629Z,-4.11
2022-11-17T16:11:15.305Z,-4.00
2022-11-17T16:13:42.588Z,-4.05
2022-11-17T16:16:13.639Z,-3.93
2022-11-17T16:18:41.994Z,-4.00
2022-11-17T16:21:12.296Z,-3.87
2022-11-17T16:23:54.716Z,-3.85
2022-11-17T16:26:24.125Z,-3.84
2022-11-17T16:28:59.803Z,-3.85
2022-11-17T16:31:29.172Z,-3.80
2022-11-17T16:33:58.481Z,-3.83
2022-11-17T16:36:34.329Z,-3.76
2022-11-17T16:39:06.035Z,-3.79
2022-11-17T16:41:37.191Z,-3.79
2022-11-17T16:44:16.857Z,-3.80
2022-11-17T16:46:47.103Z,-3.80
2022-11-17T16:49:17.282Z,-3.86
2022-11-17T16:51:49.903Z,-3.82
2022-11-17T16:54:20.034Z,-3.92
2022-11-17T16:56:50.686Z,-3.99
2022-11-17T16:59:22.628Z,-3.94
2022-11-17T17:02:02.748Z,-4.07
2022-11-17T17:04:33.141Z,-3.92
2022-11-17T17:07:03.982Z,-4.01
2022-11-17T17:09:32.278Z,-4.09
2022-11-17T17:12:01.876Z,-4.08
2022-11-17T17:14:30.317Z,-4.03
2022-11-17T17:16:57.771Z,-4.06
2022-11-17T17:19:27.959Z,-4.03
2022-11-17T17:21:58.569Z,-3.95
2022-11-17T17:24:26.436Z,-4.06
2022-11-17T17:26:53.521Z,-4.08
2022-11-17T17:29:24.358Z,-4.04
2022-11-17T17:31:51.428Z,-4.11
2022-11-17T17:34:21.600Z,-4.18
2022-11-17T17:36:52.617Z,-4.06
2022-11-17T17:39:21.081Z,-4.09
2022-11-17T17:41:48.229Z,-4.12
2022-11-17T17:44:18.245Z,-4.00
2022-11-17T17:46:47.229Z,-4.00
2022-11-17T17:49:15.034Z,-4.06
2022-11-17T17:52:13.811Z,-4.02
2022-11-17T17:54:41.490Z,-4.23
2022-11-17T17:57:13.753Z,-4.23
2022-11-17T17:59:41.022Z,-4.08
2022-11-17T18:02:15.809Z,-4.21
2022-11-17T18:04:44.424Z,-4.18
2022-11-17T18:07:13.862Z,-4.27
2022-11-17T18:09:44.838Z,-4.33
2022-11-17T18:12:14.766Z,-4.29
2022-11-17T18:14:46.175Z,-4.18
2022-11-17T18:17:14.095Z,-4.19
2022-11-17T18:19:42.710Z,-4.10
2022-11-17T18:22:14.150Z,-4.13
2022-11-17T18:24:48.120Z,-4.01
2022-11-17T18:27:21.113Z,-4.30
2022-11-17T18:29:52.247Z,-4.15
2022-11-17T18:32:21.222Z,-4.21
2022-11-17T18:34:52.513Z,-4.12
2022-11-17T18:37:20.402Z,-4.11
2022-11-17T18:39:48.823Z,-4.08
2022-11-17T18:42:19.168Z,-4.11
2022-11-17T18:44:46.536Z,-4.19
2022-11-17T18:47:14.246Z,-4.20
2022-11-17T18:49:41.618Z,-4.19
2022-11-17T18:52:14.930Z,-4.22
2022-11-17T18:54:42.483Z,-4.50
2022-11-17T18:57:15.478Z,-4.27
2022-11-17T18:59:43.509Z,-4.51
2022-11-17T19:02:10.935Z,-4.43
2022-11-17T19:04:41.714Z,-4.41
2022-11-17T19:07:17.330Z,-4.60
2022-11-17T19:09:48.796Z,-4.46
2022-11-17T19:12:19.146Z,-4.66
2022-11-17T19:14:46.423Z,-4.37
2022-11-17T19:17:16.947Z,-4.55
2022-11-17T19:19:47.157Z,-4.30
2022-11-17T19:22:19.764Z,-4.70
2022-11-17T19:24:47.203Z,-4.71
2022-11-17T19:27:14.918Z,-4.84
2022-11-17T19:29:42.399Z,-4.80
2022-11-17T19:32:10.136Z,-4.73
2022-11-17T19:34:37.576Z,-4.69
2022-11-17T19:37:06.341Z,-4.79
2022-11-17T19:39:39.748Z,-5.10
2022-11-17T19:42:07.742Z,-5.13
2022-11-17T19:44:37.866Z,-4.78
2022-11-17T19:47:05.542Z,-5.04
2022-11-17T19:49:32.822Z,-4.64
2022-11-17T19:52:04.055Z,-4.61
2022-11-17T19:54:32.135Z,-4.63
2022-11-17T19:57:00.368Z,-4.70
2022-11-17T19:59:28.546Z,-4.69
2022-11-17T20:01:55.828Z,-4.62
2022-11-17T20:04:23.060Z,-4.57
2022-11-17T20:06:50.062Z,-4.70
2022-11-17T20:09:20.103Z,-4.70
2022-11-17T20:11:50.143Z,-4.66
2022-11-17T20:14:17.219Z,-4.64
2022-11-17T20:16:49.057Z,-4.68
2022-11-17T20:19:16.400Z,-4.70
2022-11-17T20:21:46.623Z,-4.56
2022-11-17T20:24:13.842Z,-4.66
2022-11-17T20:26:42.691Z,-4.59
2022-11-17T20:29:12.368Z,-4.54
2022-11-17T20:31:39.816Z,-4.57
2022-11-17T20:34:07.775Z,-4.59
2022-11-17T20:36:35.521Z,-4.49
2022-11-17T20:39:07.733Z,-4.59
2022-11-17T20:41:35.182Z,-4.57
2022-11-17T20:44:03.371Z,-4.56
2022-11-17T20:46:30.690Z,-4.57
2022-11-17T20:48:58.020Z,-4.57
2022-11-17T20:51:26.053Z,-4.59
2022-11-17T20:53:53.628Z,-4.66
2022-11-17T20:56:23.574Z,-4.76
2022-11-17T20:58:50.524Z,-4.62
2022-11-17T21:01:20.686Z,-4.72
2022-11-17T21:03:48.201Z,-4.64
2022-11-17T21:06:16.028Z,-4.67
2022-11-17T21:08:45.167Z,-4.64
2022-11-17T21:11:33.483Z,-4.65
2022-11-17T21:14:01.468Z,-4.53
2022-11-17T21:16:28.511Z,-4.71
2022-11-17T21:18:55.521Z,-4.48
2022-11-17T21:21:22.686Z,-4.47
2022-11-17T21:23:53.729Z,-4.48
2022-11-17T21:26:22.998Z,-4.52
2022-11-17T21:28:50.228Z,-4.53
2022-11-17T21:31:23.897Z,-4.50
2022-11-17T21:34:16.702Z,-4.54
2022-11-17T21:36:43.828Z,-4.62
2022-11-17T21:39:16.906Z,-4.61
2022-11-17T21:41:44.332Z,-4.70
2022-11-17T21:44:14.228Z,-4.69
2022-11-17T21:46:41.385Z,-4.72
2022-11-17T21:49:08.438Z,-4.68
2022-11-17T21:51:38.784Z,-4.69
2022-11-17T21:54:08.821Z,-4.69
2022-11-17T21:56:36.583Z,-4.72
2022-11-17T21:59:11.534Z,-4.71
2022-11-17T22:01:39.564Z,-4.69
2022-11-17T22:04:06.700Z,-4.71
2022-11-17T22:06:34.533Z,-4.69
2022-11-17T22:09:01.440Z,-4.67
2022-11-17T22:11:37.312Z,-4.64
2022-11-17T22:14:04.664Z,-4.63
2022-11-17T22:16:32.076Z,-4.73
2022-11-17T22:18:59.470Z,-4.74
2022-11-17T22:21:26.324Z,-4.77
2022-11-17T22:23:55.017Z,-4.77
2022-11-17T22:26:22.106Z,-4.84
2022-11-17T22:28:55.999Z,-4.71
2022-11-17T22:31:23.471Z,-4.75
2022-11-17T22:33:51.182Z,-4.79
2022-11-17T22:36:18.865Z,-4.85
2022-11-17T22:38:50.707Z,-4.79
2022-11-17T22:41:19.060Z,-4.80
2022-11-17T22:43:53.686Z,-4.83
2022-11-17T22:46:22.345Z,-4.91
2022-11-17T22:48:49.600Z,-4.92
2022-11-17T22:51:36.844Z,-4.84
2022-11-17T22:54:04.688Z,-4.82
2022-11-17T22:56:32.085Z,-4.84
2022-11-17T22:58:59.992Z,-4.89
2022-11-17T23:01:27.287Z,-4.84
2022-11-17T23:03:54.312Z,-5.06
2022-11-17T23:06:23.002Z,-4.95
2022-11-17T23:08:51.051Z,-4.92
2022-11-17T23:14:09.537Z,-4.94
2022-11-17T23:16:37.860Z,-4.95
2022-11-17T23:19:06.053Z,-5.12
2022-11-17T23:21:32.991Z,-4.96
2022-11-17T23:24:00.048Z,-4.96
2022-11-17T23:26:27.252Z,-5.07
2022-11-17T23:28:54.419Z,-5.01
2022-11-17T23:31:21.511Z,-5.12
2022-11-17T23:33:48.651Z,-5.15
2022-11-17T23:36:18.552Z,-5.03
2022-11-17T23:38:48.059Z,-5.01
2022-11-17T23:41:17.015Z,-5.13
2022-11-17T23:43:43.932Z,-5.14
2022-11-17T23:46:13.715Z,-5.01
2022-11-17T23:48:41.286Z,-5.00
2022-11-17T23:51:10.740Z,-5.02
2022-11-17T23:53:37.786Z,-5.00
2022-11-17T23:56:05.636Z,-4.99
2022-11-17T23:58:33.463Z,-5.09
